Time;durP1;ratioP1;P1;durP2;ratioP2;P2;SDS_P1;SDS_P2;PMS_P1;PMS_P2;Temp;Humidity;BMP_temperature;BMP_pressure;BME280_temperature;BME280_humidity;BME280_pressure;Samples;Min_cycle;Max_cycle;Signal;HPM_P1;HPM_P2
2021/05/14 00:00:10;;;;;;;;;;;;;;;13.78;100.00;99415.89;1808741;79;20158;-82
2021/05/14 00:02:41;;;;;;;;;;;;;;;13.75;100.00;99412.22;1808896;79;20176;-81
2021/05/14 00:05:08;;;;;;;;;;;;;;;13.74;100.00;99413.28;1808880;79;20150;-81
2021/05/14 00:07:35;;;;;;;;;;;;;;;13.72;100.00;99406.36;1808667;79;20154;-82
2021/05/14 00:10:01;;;;;;;;;;;;;;;13.69;100.00;99413.06;1808820;79;20177;-81
2021/05/14 00:12:28;;;;;;;;;;;;;;;13.65;100.00;99412.64;1808850;79;20181;-82
2021/05/14 00:14:54;;;;;;;;;;;;;;;13.64;100.00;99413.67;1808952;79;20153;-81
2021/05/14 00:17:21;;;;;;;;;;;;;;;13.61;100.00;99404.56;1808771;79;20177;-82
2021/05/14 00:19:48;;;;;;;;;;;;;;;13.59;100.00;99408.55;1795336;79;20161;-81
2021/05/14 00:22:14;;;;;;;;;;;;;;;13.56;100.00;99402.98;1798116;79;20131;-80
2021/05/14 00:24:41;;;;;;;;;;;;;;;13.55;100.00;99403.22;1798179;80;20502;-80
2021/05/14 00:27:07;;;;;;;;;;;;;;;13.53;100.00;99399.84;1800554;80;20482;-80
2021/05/14 00:29:34;;;;;;;;;;;;;;;13.51;100.00;99397.36;1801328;80;20434;-80
2021/05/14 00:32:00;;;;;;;;;;;;;;;13.50;100.00;99390.78;1801367;80;20150;-81
2021/05/14 00:34:26;;;;;;;;;;;;;;;13.48;100.00;99388.27;1801686;79;20182;-81
2021/05/14 00:36:53;;;;;;;;;;;;;;;13.49;100.00;99391.27;1801893;80;20158;-81
2021/05/14 00:39:19;;;;;;;;;;;;;;;13.47;100.00;99385.22;1801619;80;20153;-80
2021/05/14 00:41:47;;;;;;;;;;;;;;;13.45;100.00;99380.52;1801727;79;20189;-81
2021/05/14 00:44:29;;;;;;;;;;;;;;;13.44;100.00;99379.69;1801690;79;20173;-81
2021/05/14 00:47:05;;;;;;;;;;;;;;;13.46;100.00;99380.31;1719627;81;20168;-81
2021/05/14 00:49:31;;;;;;;;;;;;;;;13.47;100.00;99372.50;1719385;84;20552;-80
2021/05/14 00:51:58;;;;;;;;;;;;;;;13.48;100.00;99368.72;1719537;84;20220;-81
2021/05/14 00:54:25;;;;;;;;;;;;;;;13.51;100.00;99368.84;1719584;84;20183;-79
2021/05/14 00:56:52;;;;;;;;;;;;;;;13.50;100.00;99362.26;1719484;84;20227;-80
2021/05/14 00:59:18;;;;;;;;;;;;;;;13.50;100.00;99364.98;1711911;81;20247;-81
2021/05/14 01:01:44;;;;;;;;;;;;;;;13.48;100.00;99357.86;1710378;81;20133;-80
2021/05/14 01:04:11;;;;;;;;;;;;;;;13.52;100.00;99354.73;1710001;81;20168;-80
2021/05/14 01:06:38;;;;;;;;;;;;;;;13.54;100.00;99354.83;1710560;81;20149;-79
2021/05/14 01:09:05;;;;;;;;;;;;;;;13.58;100.00;99349.81;1708741;84;20203;-80
2021/05/14 01:11:33;;;;;;;;;;;;;;;13.60;100.00;99351.30;1708825;84;20216;-79
2021/05/14 01:13:59;;;;;;;;;;;;;;;13.65;100.00;99355.59;1708783;84;20245;-80
2021/05/14 01:16:26;;;;;;;;;;;;;;;13.69;100.00;99358.73;1709343;84;20188;-78
2021/05/14 01:18:53;;;;;;;;;;;;;;;13.72;100.00;99353.39;1696608;83;20178;-79
2021/05/14 01:21:20;;;;;;;;;;;;;;;13.74;100.00;99348.08;1733437;83;20550;-78
2021/05/14 01:23:47;;;;;;;;;;;;;;;13.77;100.00;99351.71;1733540;83;20171;-77
2021/05/14 01:26:15;;;;;;;;;;;;;;;13.77;100.00;99349.00;1733163;83;20167;-81
2021/05/14 01:28:41;;;;;;;;;;;;;;;13.77;100.00;99344.92;1733434;83;20170;-79
2021/05/14 01:31:08;;;;;;;;;;;;;;;13.77;100.00;99350.89;1733369;83;20162;-79
2021/05/14 01:33:35;;;;;;;;;;;;;;;13.78;100.00;99352.04;1733283;83;20527;-80
2021/05/14 01:36:02;;;;;;;;;;;;;;;13.79;100.00;99346.07;1733380;83;20206;-79
2021/05/14 01:38:29;;;;;;;;;;;;;;;13.79;100.00;99354.22;1733105;83;20182;-78
2021/05/14 01:40:55;;;;;;;;;;;;;;;13.78;100.00;99349.32;1744693;81;20137;-79
2021/05/14 01:43:22;;;;;;;;;;;;;;;13.77;100.00;99351.71;1772369;81;20179;-79
2021/05/14 01:45:48;;;;;;;;;;;;;;;13.77;100.00;99350.35;1772134;81;20206;-80
2021/05/14 01:48:15;;;;;;;;;;;;;;;13.76;100.00;99347.88;1770215;81;20156;-78
2021/05/14 01:50:41;;;;;;;;;;;;;;;13.76;100.00;99351.95;1769179;81;20495;-78
2021/05/14 01:53:07;;;;;;;;;;;;;;;13.75;100.00;99345.66;1769294;81;20156;-79
2021/05/14 01:55:35;;;;;;;;;;;;;;;13.73;100.00;99349.11;1769469;81;20156;-79
2021/05/14 01:58:02;;;;;;;;;;;;;;;13.72;100.00;99345.23;1751716;79;20182;-77
2021/05/14 02:00:28;;;;;;;;;;;;;;;13.71;100.00;99347.66;1778866;81;20162;-80
2021/05/14 02:02:55;;;;;;;;;;;;;;;13.66;100.00;99347.73;1771682;81;20203;-79
2021/05/14 02:05:21;;;;;;;;;;;;;;;13.65;100.00;99357.45;1771731;81;20175;-78
2021/05/14 02:07:48;;;;;;;;;;;;;;;13.60;100.00;99351.30;1771722;81;20179;-82
2021/05/14 02:10:15;;;;;;;;;;;;;;;13.60;100.00;99350.47;1771920;81;20199;-80
2021/05/14 02:12:41;;;;;;;;;;;;;;;13.59;100.00;99343.36;1771683;81;20206;-79
2021/05/14 02:15:09;;;;;;;;;;;;;;;13.58;100.00;99343.89;1771875;81;20202;-80
2021/05/14 02:17:38;;;;;;;;;;;;;;;13.58;100.00;99344.39;1771668;81;20148;-81
2021/05/14 02:20:08;;;;;;;;;;;;;;;13.59;100.00;99346.90;1756221;81;20153;-80
2021/05/14 02:22:35;;;;;;;;;;;;;;;13.60;100.00;99341.80;1750226;82;20168;-79
2021/05/14 02:25:01;;;;;;;;;;;;;;;13.63;100.00;99341.89;1750401;82;20211;-81
2021/05/14 02:27:27;;;;;;;;;;;;;;;13.64;100.00;99340.86;1750798;82;20182;-85
2021/05/14 02:29:54;;;;;;;;;;;;;;;13.62;100.00;99337.52;1750360;82;20171;-78
2021/05/14 02:32:22;;;;;;;;;;;;;;;13.62;100.00;99342.95;1751021;82;20508;-80
2021/05/14 02:34:48;;;;;;;;;;;;;;;13.60;100.00;99332.29;1750961;82;20175;-80
2021/05/14 02:37:14;;;;;;;;;;;;;;;13.62;100.00;99341.59;1750209;81;20161;-80
2021/05/14 02:39:41;;;;;;;;;;;;;;;13.61;100.00;99342.09;1751141;82;20195;-79
2021/05/14 02:42:08;;;;;;;;;;;;;;;13.60;100.00;99340.44;1750372;82;20153;-80
2021/05/14 02:44:36;;;;;;;;;;;;;;;13.60;100.00;99342.33;1750699;82;20180;-81
2021/05/14 02:47:03;;;;;;;;;;;;;;;13.58;100.00;99340.31;1749062;81;20172;-81
2021/05/14 02:49:30;;;;;;;;;;;;;;;13.56;100.00;99339.16;1750785;82;20144;-78
2021/05/14 02:51:56;;;;;;;;;;;;;;;13.55;100.00;99337.50;1749414;82;20149;-80
2021/05/14 02:54:23;;;;;;;;;;;;;;;13.54;100.00;99335.82;1750433;82;20188;-78
2021/05/14 02:56:49;;;;;;;;;;;;;;;13.54;100.00;99336.34;1750562;82;20179;-79
2021/05/14 02:59:16;;;;;;;;;;;;;;;13.53;100.00;99344.17;1768347;80;20146;-77
2021/05/14 03:01:42;;;;;;;;;;;;;;;13.52;100.00;99341.16;1779338;81;20169;-79
2021/05/14 03:04:09;;;;;;;;;;;;;;;13.53;100.00;99336.02;1779951;80;20558;-79
2021/05/14 03:06:35;;;;;;;;;;;;;;;13.53;100.00;99346.89;1780846;81;20467;-78
2021/05/14 03:09:02;;;;;;;;;;;;;;;13.52;100.00;99337.08;1780685;81;20146;-80
2021/05/14 03:11:29;;;;;;;;;;;;;;;13.53;100.00;99340.09;1779506;81;20166;-79
2021/05/14 03:13:56;;;;;;;;;;;;;;;13.54;100.00;99341.25;1779650;81;20142;-79
2021/05/14 03:16:23;;;;;;;;;;;;;;;13.57;100.00;99340.84;1779298;81;20173;-81
2021/05/14 03:18:50;;;;;;;;;;;;;;;13.60;100.00;99340.44;1773074;79;20159;-79
2021/05/14 03:21:16;;;;;;;;;;;;;;;13.64;100.00;99344.40;1779384;81;20152;-79
2021/05/14 03:23:43;;;;;;;;;;;;;;;13.69;100.00;99343.78;1779399;81;20159;-82
2021/05/14 03:26:09;;;;;;;;;;;;;;;13.73;100.00;99346.92;1781418;81;20160;-80
2021/05/14 03:28:36;;;;;;;;;;;;;;;13.77;100.00;99349.53;1781675;81;20160;-80
2021/05/14 03:31:02;;;;;;;;;;;;;;;13.81;100.00;99344.83;1781836;81;20171;-80
2021/05/14 03:33:29;;;;;;;;;;;;;;;13.85;100.00;99343.89;1781646;81;20143;-80
2021/05/14 03:35:58;;;;;;;;;;;;;;;13.89;100.00;99347.03;1781826;80;20160;-80
2021/05/14 03:40:53;;;;;;;;;;;;;;;13.94;100.00;99345.87;1719006;83;20153;-80
2021/05/14 03:43:19;;;;;;;;;;;;;;;13.97;100.00;99348.16;1719060;83;20172;-81
2021/05/14 03:45:46;;;;;;;;;;;;;;;14.01;100.00;99343.45;1719057;83;20148;-80
2021/05/14 03:48:19;;;;;;;;;;;;;;;14.09;100.00;99341.56;1719103;83;20168;-78
2021/05/14 03:50:49;;;;;;;;;;;;;;;14.16;100.00;99346.47;1719237;83;20197;-79
2021/05/14 03:53:18;;;;;;;;;;;;;;;14.24;100.00;99349.80;1661173;86;20197;-80
2021/05/14 03:55:45;;;;;;;;;;;;;;;14.32;100.00;99345.19;1598203;90;20170;-78
2021/05/14 03:58:11;;;;;;;;;;;;;;;14.38;100.00;99339.73;1598414;89;20202;-79
2021/05/14 04:00:38;;;;;;;;;;;;;;;14.47;100.00;99343.60;1601930;89;20202;-78
2021/05/14 04:03:04;;;;;;;;;;;;;;;14.56;100.00;99347.75;1605406;88;20178;-78
2021/05/14 04:05:33;;;;;;;;;;;;;;;14.64;100.00;99343.98;1605601;89;20547;-79
2021/05/14 04:08:00;;;;;;;;;;;;;;;14.70;100.00;99341.78;1605736;89;20162;-80
2021/05/14 04:10:47;;;;;;;;;;;;;;;14.79;100.00;99344.56;1599370;89;20178;-80
2021/05/14 04:15:53;;;;;;;;;;;;;;;14.97;100.00;99341.12;1599004;89;20387;-79
2021/05/14 04:18:20;;;;;;;;;;;;;;;15.07;100.00;99348.31;1629374;85;20185;-78
2021/05/14 04:20:47;;;;;;;;;;;;;;;15.17;100.00;99351.91;1682832;85;20171;-79
2021/05/14 04:23:13;;;;;;;;;;;;;;;15.30;100.00;99353.74;1682756;85;20186;-79
2021/05/14 04:25:40;;;;;;;;;;;;;;;15.40;100.00;99342.35;1682792;85;20166;-80
2021/05/14 04:28:07;;;;;;;;;;;;;;;15.52;100.00;99339.23;1682963;85;20168;-77
2021/05/14 04:30:33;;;;;;;;;;;;;;;15.66;100.00;99351.70;1683076;85;20503;-78
2021/05/14 04:33:00;;;;;;;;;;;;;;;15.81;100.00;99347.84;1683589;85;20516;-78
2021/05/14 04:35:27;;;;;;;;;;;;;;;15.93;100.00;99343.34;1683285;85;20467;-78
2021/05/14 04:37:54;;;;;;;;;;;;;;;16.06;100.00;99345.11;1682876;85;20175;-77
2021/05/14 04:40:20;;;;;;;;;;;;;;;16.24;100.00;99341.60;1683159;85;20191;-78
2021/05/14 04:42:47;;;;;;;;;;;;;;;16.40;100.00;99340.18;1683508;85;20162;-79
2021/05/14 04:45:16;;;;;;;;;;;;;;;16.56;100.00;99338.75;1683560;85;20143;-80
2021/05/14 04:47:42;;;;;;;;;;;;;;;16.68;100.00;99337.75;1684164;85;20167;-78
2021/05/14 04:50:12;;;;;;;;;;;;;;;16.73;100.00;99338.95;1700474;82;20136;-75
2021/05/14 04:52:38;;;;;;;;;;;;;;;16.86;100.00;99338.30;1768680;78;20106;-77
2021/05/14 04:55:06;;;;;;;;;;;;;;;17.02;100.00;99338.20;1817628;78;20225;-78
2021/05/14 04:57:32;;;;;;;;;;;;;;;17.16;100.00;99329.30;1806016;79;20185;-78
2021/05/14 04:59:59;;;;;;;;;;;;;;;17.32;100.00;99325.62;1804184;80;20153;-78
2021/05/14 05:02:26;;;;;;;;;;;;;;;17.49;100.00;99328.50;1804523;80;20165;-81
2021/05/14 05:04:54;;;;;;;;;;;;;;;17.69;100.00;99322.70;1804351;80;20146;-78
2021/05/14 05:07:21;;;;;;;;;;;;;;;17.87;100.00;99319.11;1782368;80;20189;-77
2021/05/14 05:09:49;;;;;;;;;;;;;;;18.01;100.00;99311.79;1782851;80;20450;-79
2021/05/14 05:12:16;;;;;;;;;;;;;;;18.11;100.00;99304.34;1804478;79;20491;-76
2021/05/14 05:14:43;;;;;;;;;;;;;;;18.23;100.00;99307.63;1803875;79;20166;-74
2021/05/14 05:17:11;;;;;;;;;;;;;;;18.42;100.00;99309.70;1773352;81;20192;-79
2021/05/14 05:19:38;;;;;;;;;;;;;;;18.62;100.00;99303.81;1794975;79;20231;-78
2021/05/14 05:22:05;;;;;;;;;;;;;;;18.59;100.00;99305.97;1782966;81;20191;-77
2021/05/14 05:24:31;;;;;;;;;;;;;;;18.62;100.00;99301.90;1798212;79;20177;-80
2021/05/14 05:26:58;;;;;;;;;;;;;;;18.63;100.00;99299.98;1816409;79;20145;-79
2021/05/14 05:29:27;;;;;;;;;;;;;;;18.67;100.00;99294.34;1739130;82;20162;-75
2021/05/14 05:31:54;;;;;;;;;;;;;;;18.78;100.00;99311.27;1799047;80;20209;-81
2021/05/14 05:34:24;;;;;;;;;;;;;;;18.95;100.00;99311.38;1799567;79;20154;-82
2021/05/14 05:36:52;;;;;;;;;;;;;;;19.17;100.00;99306.02;1799777;79;20146;-80
2021/05/14 05:39:19;;;;;;;;;;;;;;;19.33;100.00;99304.40;1792029;79;20185;-78
2021/05/14 05:41:46;;;;;;;;;;;;;;;19.43;100.00;99303.77;1782260;80;20239;-79
2021/05/14 05:44:12;;;;;;;;;;;;;;;19.53;100.00;99300.66;1780421;81;20142;-77
2021/05/14 05:46:39;;;;;;;;;;;;;;;19.59;100.00;99294.72;1781692;80;20174;-79
2021/05/14 05:49:06;;;;;;;;;;;;;;;19.54;100.00;99291.88;1780361;81;20154;-79
2021/05/14 05:51:33;;;;;;;;;;;;;;;19.58;100.00;99289.47;1780273;81;20237;-79
2021/05/14 05:54:00;;;;;;;;;;;;;;;19.70;100.00;99299.83;1780886;80;20455;-76
2021/05/14 05:56:27;;;;;;;;;;;;;;;19.95;100.00;99304.09;1780128;81;20141;-76
2021/05/14 05:58:53;;;;;;;;;;;;;;;20.13;100.00;99291.45;1780652;80;20166;-77
2021/05/14 06:01:20;;;;;;;;;;;;;;;20.13;100.00;99285.14;1779833;79;20477;-76
2021/05/14 06:03:48;;;;;;;;;;;;;;;20.08;100.00;99288.12;1779738;81;20115;-78
2021/05/14 06:06:15;;;;;;;;;;;;;;;20.03;100.00;99295.45;1782524;81;20149;-80
2021/05/14 06:08:42;;;;;;;;;;;;;;;19.87;100.00;99295.75;1777214;81;20205;-77
2021/05/14 06:11:09;;;;;;;;;;;;;;;19.85;100.00;99296.55;1779178;80;20486;-80
2021/05/14 06:13:37;;;;;;;;;;;;;;;19.96;100.00;99284.64;1781242;79;20191;-78
2021/05/14 06:16:05;;;;;;;;;;;;;;;20.06;100.00;99286.17;1785698;79;20171;-84
2021/05/14 06:18:38;;;;;;;;;;;;;;;20.16;100.00;99284.09;1802379;79;20161;-76
2021/05/14 06:21:04;;;;;;;;;;;;;;;20.24;100.00;99289.72;1778967;79;20567;-77
2021/05/14 06:23:31;;;;;;;;;;;;;;;20.21;100.00;99283.35;1775296;81;20232;-74
2021/05/14 06:25:57;;;;;;;;;;;;;;;20.24;100.00;99278.19;1779269;81;20177;-79
2021/05/14 06:28:25;;;;;;;;;;;;;;;20.37;100.00;99272.86;1781667;81;20167;-79
2021/05/14 06:30:52;;;;;;;;;;;;;;;20.64;100.00;99278.45;1779707;81;20256;-76
2021/05/14 06:33:18;;;;;;;;;;;;;;;20.89;100.00;99275.72;1781259;81;20227;-75
2021/05/14 06:35:47;;;;;;;;;;;;;;;21.08;100.00;99286.38;1780306;81;20180;-75
2021/05/14 06:38:14;;;;;;;;;;;;;;;21.23;100.00;99287.37;1779801;81;20545;-73
2021/05/14 06:40:40;;;;;;;;;;;;;;;21.26;100.00;99281.88;1770349;79;20151;-81
2021/05/14 06:43:08;;;;;;;;;;;;;;;21.36;100.00;99283.36;1798637;79;20161;-81
2021/05/14 06:45:35;;;;;;;;;;;;;;;21.58;100.00;99280.58;1815711;79;20142;-79
2021/05/14 06:48:07;;;;;;;;;;;;;;;21.64;100.00;99273.72;1815096;79;20216;-81
2021/05/14 06:50:35;;;;;;;;;;;;;;;21.55;100.00;99273.40;1790420;79;20168;-82
2021/05/14 06:53:02;;;;;;;;;;;;;;;21.50;100.00;99272.80;1776667;81;20203;-80
2021/05/14 06:55:29;;;;;;;;;;;;;;;21.58;100.00;99271.48;1780612;81;20495;-78
2021/05/14 06:57:56;;;;;;;;;;;;;;;21.77;100.00;99275.48;1783182;81;20152;-76
2021/05/14 07:00:22;;;;;;;;;;;;;;;22.08;100.00;99274.34;1783152;80;20163;-82
2021/05/14 07:02:49;;;;;;;;;;;;;;;22.30;100.00;99267.88;1782942;81;20167;-80
2021/05/14 07:05:16;;;;;;;;;;;;;;;22.36;100.00;99270.92;1777435;80;20156;-80
2021/05/14 07:07:43;;;;;;;;;;;;;;;22.58;100.00;99271.33;1777799;81;20162;-84
2021/05/14 07:10:11;;;;;;;;;;;;;;;22.81;100.00;99270.03;1780824;79;20173;-80
2021/05/14 07:12:37;;;;;;;;;;;;;;;22.98;100.00;99269.80;1785854;79;20196;-75
2021/05/14 07:15:06;;;;;;;;;;;;;;;23.21;100.00;99272.62;1791959;79;20181;-79
2021/05/14 07:17:33;;;;;;;;;;;;;;;23.38;100.00;99273.20;1795473;79;20156;-74
2021/05/14 07:20:00;;;;;;;;;;;;;;;23.42;100.00;99274.30;1777866;79;20216;-75
2021/05/14 07:22:28;;;;;;;;;;;;;;;23.53;100.00;99272.94;1790254;79;20168;-73
2021/05/14 07:24:55;;;;;;;;;;;;;;;23.67;100.00;99267.99;1782594;79;20199;-79
2021/05/14 07:27:23;;;;;;;;;;;;;;;23.85;100.00;99265.25;1774591;80;20201;-77
2021/05/14 07:29:52;;;;;;;;;;;;;;;24.20;100.00;99265.45;1777046;80;20167;-76
2021/05/14 07:34:57;;;;;;;;;;;;;;;24.48;100.00;99265.36;1701075;84;20632;-75
2021/05/14 07:37:25;;;;;;;;;;;;;;;24.49;100.00;99269.80;1701519;84;20172;-75
2021/05/14 07:39:54;;;;;;;;;;;;;;;24.61;100.00;99271.72;1678900;84;20172;-76
2021/05/14 07:42:20;;;;;;;;;;;;;;;24.86;100.00;99268.56;1697812;84;20181;-77
2021/05/14 07:44:47;;;;;;;;;;;;;;;25.05;100.00;99264.56;1693114;84;20164;-76
2021/05/14 07:47:15;;;;;;;;;;;;;;;24.97;100.00;99270.15;1702611;84;20193;-78
2021/05/14 07:49:54;;;;;;;;;;;;;;;25.00;100.00;99261.29;1700640;84;20200;-78
2021/05/14 07:52:22;;;;;;;;;;;;;;;25.19;100.00;99269.72;1636705;86;20210;-74
2021/05/14 07:54:49;;;;;;;;;;;;;;;25.38;100.00;99282.92;1646474;87;20213;-73
2021/05/14 07:57:19;;;;;;;;;;;;;;;25.49;100.00;99269.27;1647967;87;20259;-75
2021/05/14 07:59:45;;;;;;;;;;;;;;;25.51;100.00;99275.91;1646917;86;20168;-72
2021/05/14 08:02:12;;;;;;;;;;;;;;;25.39;100.00;99277.11;1646885;87;20224;-73
2021/05/14 08:04:38;;;;;;;;;;;;;;;25.43;100.00;99277.36;1653138;86;20205;-75
2021/05/14 08:07:05;;;;;;;;;;;;;;;25.50;100.00;99279.23;1653982;86;20184;-72
2021/05/14 08:09:32;;;;;;;;;;;;;;;25.60;100.00;99278.88;1625127;88;20203;-74
2021/05/14 08:12:04;;;;;;;;;;;;;;;25.63;100.00;99278.31;1647447;87;20188;-72
2021/05/14 08:14:30;;;;;;;;;;;;;;;25.69;100.00;99280.76;1642851;87;20202;-73
2021/05/14 08:17:00;;;;;;;;;;;;;;;25.77;100.00;99287.03;1643473;87;20193;-74
2021/05/14 08:19:26;;;;;;;;;;;;;;;25.75;100.00;99284.30;1643955;86;20173;-74
2021/05/14 08:21:53;;;;;;;;;;;;;;;25.82;100.00;99286.17;1650103;87;20169;-75
2021/05/14 08:24:19;;;;;;;;;;;;;;;25.91;100.00;99286.38;1653066;87;20240;-74
2021/05/14 08:26:46;;;;;;;;;;;;;;;25.88;100.00;99287.77;1653187;87;20276;-76
2021/05/14 08:29:14;;;;;;;;;;;;;;;25.72;100.00;99294.00;1698606;81;20149;-75
2021/05/14 08:31:41;;;;;;;;;;;;;;;25.77;100.00;99292.58;1769754;79;20183;-75
2021/05/14 08:34:08;;;;;;;;;;;;;;;25.78;100.00;99293.39;1782899;81;20163;-76
2021/05/14 08:36:35;;;;;;;;;;;;;;;25.89;100.00;99285.28;1783007;81;20167;-75
2021/05/14 08:39:02;;;;;;;;;;;;;;;25.90;100.00;99291.06;1782701;80;20507;-77
2021/05/14 08:41:30;;;;;;;;;;;;;;;25.77;100.00;99291.19;1782904;79;20152;-74
2021/05/14 08:43:58;;;;;;;;;;;;;;;25.84;100.00;99288.09;1783062;79;20195;-76
2021/05/14 08:46:25;;;;;;;;;;;;;;;25.74;100.00;99288.98;1761136;81;20159;-74
2021/05/14 08:48:52;;;;;;;;;;;;;;;25.63;100.00;99284.67;1783366;81;20166;-75
2021/05/14 08:51:24;;;;;;;;;;;;;;;25.72;100.00;99290.41;1784870;81;20149;-73
2021/05/14 08:53:47;;;;;;;;;;;;;;;25.86;100.00;99287.80;1786579;80;20152;-74
2021/05/14 08:56:14;;;;;;;;;;;;;;;25.93;100.00;99282.22;1782670;81;20187;-77
2021/05/14 08:58:42;;;;;;;;;;;;;;;26.06;100.00;99285.42;1782616;80;20261;-75
2021/05/14 09:01:09;;;;;;;;;;;;;;;26.02;100.00;99282.98;1703839;82;20195;-76
2021/05/14 09:04:03;;;;;;;;;;;;;;;26.12;100.00;99277.34;1722600;82;20148;-76
2021/05/14 09:06:33;;;;;;;;;;;;;;;26.30;100.00;99282.13;1723507;82;20154;-75
2021/05/14 09:09:04;;;;;;;;;;;;;;;26.55;100.00;99276.59;1747655;82;20170;-75
2021/05/14 09:11:33;;;;;;;;;;;;;;;26.58;100.00;99271.81;1746817;82;20225;-75
2021/05/14 09:14:00;;;;;;;;;;;;;;;26.48;100.00;99268.05;1694829;83;20178;-76
2021/05/14 09:16:40;;;;;;;;;;;;;;;26.21;100.00;99275.58;1709171;83;20214;-75
2021/05/14 09:19:08;;;;;;;;;;;;;;;26.04;100.00;99278.78;1686568;83;20552;-75
2021/05/14 09:21:37;;;;;;;;;;;;;;;26.02;100.00;99281.03;1694590;83;20265;-75
2021/05/14 09:24:05;;;;;;;;;;;;;;;26.15;100.00;99279.51;1709876;83;20188;-74
2021/05/14 09:26:32;;;;;;;;;;;;;;;26.32;100.00;99284.03;1668115;85;20188;-74
2021/05/14 09:28:59;;;;;;;;;;;;;;;26.48;100.00;99279.14;1662282;86;20245;-76
2021/05/14 09:31:28;;;;;;;;;;;;;;;26.66;100.00;99285.07;1664172;86;20192;-75
2021/05/14 09:33:58;;;;;;;;;;;;;;;26.84;100.00;99282.91;1671421;85;20553;-76
2021/05/14 09:36:32;;;;;;;;;;;;;;;27.11;100.00;99286.98;1674674;84;20140;-77
2021/05/14 09:39:00;;;;;;;;;;;;;;;27.28;100.00;99301.16;1637324;87;20194;-76
2021/05/14 09:41:33;;;;;;;;;;;;;;;27.42;100.00;99285.97;1649849;87;20622;-82
2021/05/14 09:44:03;;;;;;;;;;;;;;;27.44;100.00;99285.68;1667863;85;20174;-75
2021/05/14 09:46:32;;;;;;;;;;;;;;;27.39;100.00;99287.14;1662428;84;20494;-74
2021/05/14 09:49:02;;;;;;;;;;;;;;;27.45;100.00;99298.44;1652415;87;20181;-73
2021/05/14 09:51:29;;;;;;;;;;;;;;;27.51;100.00;99290.86;1643163;86;20226;-75
2021/05/14 09:53:56;;;;;;;;;;;;;;;27.48;100.00;99310.88;1640098;86;20157;-75
2021/05/14 09:58:58;;;;;;;;;;;;;;;27.40;100.00;99290.19;1609679;89;20536;-76
2021/05/14 10:01:26;;;;;;;;;;;;;;;27.45;100.00;99279.02;1609145;87;20552;-74
2021/05/14 10:03:52;;;;;;;;;;;;;;;27.42;100.00;99287.36;1614446;89;20173;-80
2021/05/14 10:06:19;;;;;;;;;;;;;;;27.41;100.00;99286.27;1613974;89;20309;-78
2021/05/14 10:11:14;;;;;;;;;;;;;;;27.34;100.00;99296.93;1559900;90;20249;-78
2021/05/14 10:13:41;;;;;;;;;;;;;;;27.26;100.00;99288.70;1571509;90;20538;-76
2021/05/14 10:16:08;;;;;;;;;;;;;;;27.09;100.00;99290.05;1580398;90;20272;-79
2021/05/14 10:18:42;;;;;;;;;;;;;;;26.94;100.00;99288.87;1572646;90;20180;-76
2021/05/14 10:21:10;;;;;;;;;;;;;;;26.76;100.00;99293.27;1559146;92;20215;-78
2021/05/14 10:23:37;;;;;;;;;;;;;;;26.56;100.00;99283.23;1565333;92;20175;-78
2021/05/14 10:26:08;;;;;;;;;;;;;;;26.43;100.00;99289.47;1566720;92;20178;-76
2021/05/14 10:28:41;;;;;;;;;;;;;;;26.24;100.00;99279.16;1510096;95;20209;-77
2021/05/14 10:31:15;;;;;;;;;;;;;;;26.07;100.00;99295.40;1509125;95;20168;-81
2021/05/14 10:33:49;;;;;;;;;;;;;;;26.06;100.00;99295.12;1510517;95;20238;-79
2021/05/14 10:36:28;;;;;;;;;;;;;;;26.20;100.00;99299.42;1490548;95;20191;-78
2021/05/14 10:39:13;;;;;;;;;;;;;;;26.30;100.00;99286.28;1488230;96;20243;-79
2021/05/14 10:41:51;;;;;;;;;;;;;;;26.26;100.00;99287.14;1483931;96;20278;-75
2021/05/14 10:44:17;;;;;;;;;;;;;;;26.31;100.00;99284.33;1485335;96;20322;-77
2021/05/14 10:46:44;;;;;;;;;;;;;;;26.29;100.00;99297.66;1486492;96;20227;-80
2021/05/14 10:49:13;;;;;;;;;;;;;;;26.22;100.00;99288.30;1532760;91;20164;-80
2021/05/14 10:51:52;;;;;;;;;;;;;;;26.22;100.00;99291.06;1574278;91;20179;-80
2021/05/14 10:54:43;;;;;;;;;;;;;;;26.18;100.00;99292.78;1579357;90;20203;-80
2021/05/14 10:57:13;;;;;;;;;;;;;;;26.28;100.00;99285.75;1585705;91;20257;-77
2021/05/14 10:59:41;;;;;;;;;;;;;;;26.56;100.00;99292.09;1584785;91;20162;-78
2021/05/14 11:02:28;;;;;;;;;;;;;;;26.53;100.00;99287.41;1600862;89;20309;-78
2021/05/14 11:04:57;;;;;;;;;;;;;;;26.43;100.00;99292.24;1602819;87;20170;-81
2021/05/14 11:07:40;;;;;;;;;;;;;;;26.35;100.00;99289.56;1602708;90;20174;-78
2021/05/14 11:10:25;;;;;;;;;;;;;;;26.27;100.00;99281.31;1484467;95;20226;-83
2021/05/14 11:12:53;;;;;;;;;;;;;;;26.13;100.00;99281.75;1496894;96;20212;-78
2021/05/14 11:15:24;;;;;;;;;;;;;;;26.05;100.00;99292.91;1494888;95;20222;-79
2021/05/14 11:18:17;;;;;;;;;;;;;;;26.05;99.07;99289.33;1549654;90;20184;-78
2021/05/14 11:20:48;;;;;;;;;;;;;;;26.02;99.49;99291.29;1561652;90;20405;-79
2021/05/14 11:23:33;;;;;;;;;;;;;;;25.92;97.44;99286.63;1556197;91;20514;-77
2021/05/14 11:26:01;;;;;;;;;;;;;;;26.03;96.59;99287.38;1577594;89;20190;-76
2021/05/14 11:28:43;;;;;;;;;;;;;;;26.22;97.06;99285.52;1580768;89;20500;-74
2021/05/14 11:31:15;;;;;;;;;;;;;;;26.42;93.07;99283.11;1597551;89;20214;-75
2021/05/14 11:33:47;;;;;;;;;;;;;;;26.59;86.41;99279.84;1573025;90;20170;-73
2021/05/14 11:36:13;;;;;;;;;;;;;;;26.54;89.41;99277.13;1552884;92;20602;-73
2021/05/14 11:38:54;;;;;;;;;;;;;;;26.78;87.16;99283.27;1556879;92;20185;-73
2021/05/14 11:41:26;;;;;;;;;;;;;;;26.95;84.92;99272.50;1558397;92;20171;-74
2021/05/14 11:43:56;;;;;;;;;;;;;;;26.99;83.55;99275.50;1547363;92;20544;-74
2021/05/14 11:46:24;;;;;;;;;;;;;;;27.05;85.47;99269.56;1546409;91;20171;-77
2021/05/14 11:48:51;;;;;;;;;;;;;;;27.16;89.03;99287.45;1578891;91;20240;-77
2021/05/14 11:51:18;;;;;;;;;;;;;;;27.11;84.74;99287.52;1561392;90;20518;-74
2021/05/14 11:53:44;;;;;;;;;;;;;;;26.97;82.23;99269.41;1564213;91;20200;-76
2021/05/14 11:56:11;;;;;;;;;;;;;;;26.86;83.42;99282.59;1558114;91;20182;-78
2021/05/14 11:58:39;;;;;;;;;;;;;;;26.80;85.78;99281.02;1557672;91;20226;-76
2021/05/14 12:01:07;;;;;;;;;;;;;;;26.89;88.49;99272.29;1561495;91;20225;-78
2021/05/14 12:03:33;;;;;;;;;;;;;;;26.95;86.45;99268.34;1553675;91;20186;-76
2021/05/14 12:06:05;;;;;;;;;;;;;;;26.86;84.64;99270.11;1556842;91;20239;-78
2021/05/14 12:08:32;;;;;;;;;;;;;;;26.88;87.03;99267.31;1542644;90;20250;-75
2021/05/14 12:11:07;;;;;;;;;;;;;;;26.92;82.10;99265.34;1566905;90;20194;-79
2021/05/14 12:13:34;;;;;;;;;;;;;;;26.80;81.94;99266.58;1553755;90;20188;-76
2021/05/14 12:16:05;;;;;;;;;;;;;;;26.67;83.52;99267.33;1571000;90;20199;-75
2021/05/14 12:18:34;;;;;;;;;;;;;;;26.66;80.96;99264.27;1582362;90;20286;-80
2021/05/14 12:21:02;;;;;;;;;;;;;;;26.58;83.26;99260.19;1564475;90;20195;-75
2021/05/14 12:23:28;;;;;;;;;;;;;;;26.53;77.01;99261.07;1566675;90;20163;-74
2021/05/14 12:26:02;;;;;;;;;;;;;;;26.39;79.32;99268.45;1552359;91;20576;-78
2021/05/14 12:28:37;;;;;;;;;;;;;;;26.43;82.25;99272.27;1543880;91;20168;-75
2021/05/14 12:31:12;;;;;;;;;;;;;;;26.66;85.30;99262.32;1528722;92;20545;-76
2021/05/14 12:33:49;;;;;;;;;;;;;;;26.89;82.73;99263.97;1579167;89;20506;-74
2021/05/14 12:36:32;;;;;;;;;;;;;;;27.01;74.99;99270.48;1571418;89;20504;-77
2021/05/14 12:39:14;;;;;;;;;;;;;;;27.12;79.38;99260.05;1570005;91;20176;-79
2021/05/14 12:41:41;;;;;;;;;;;;;;;27.23;80.93;99261.00;1573994;89;20184;-80
2021/05/14 12:44:22;;;;;;;;;;;;;;;27.44;77.79;99264.28;1634091;86;20222;-77
2021/05/14 12:47:11;;;;;;;;;;;;;;;27.48;76.96;99256.17;1627806;86;20248;-79
2021/05/14 12:49:46;;;;;;;;;;;;;;;27.41;76.60;99261.29;1653813;86;20271;-78
2021/05/14 12:52:20;;;;;;;;;;;;;;;27.41;79.27;99259.36;1606249;88;20178;-74
2021/05/14 12:55:01;;;;;;;;;;;;;;;27.28;79.29;99257.33;1611052;87;20275;-81
2021/05/14 12:57:31;;;;;;;;;;;;;;;27.07;73.73;99268.72;1606383;89;20261;-81